• Join FlightAware (Why Join?)
  • Login
  • US Flag 
12:37PM EDT


 

Airport Tracker/Info


-or-


 

Live Flight TrackerFlight Track Log ✈ N589H ✈ 19-Mar-2014 ✈ CYXU - KPIE

Flight Track Log - Related Links

Times and Time Zones

All times are in EDT time to prevent confusion due to time zone crossing. See the N589H flight status page for this flight to view local times or setup timezone preferences in your user account.

Time Position Orientation Groundspeed Altitude Reporting Facility
EDT Latitude Longitude Course Direction KTS MPH feet Rate Location/Type
03:33PM 43.0000 -81.1167 143° Southeast 110 127 1,300  Level Toronto Center
03:34PM 42.9667 -81.0833 144° Southeast 170 196 3,200 1,620 Climbing Toronto Center
03:35PM 42.9167 -81.0667 166° South 180 207 4,600 1,440 Climbing Toronto Center
03:36PM 42.8667 -81.0833 194° South 200 230 6,100 1,800 Climbing Toronto Center
03:37PM 42.8000 -81.0833 180° South 200 230 8,300 2,040 Climbing Toronto Center
03:38PM 42.7500 -81.0833 180° South 200 230 10,200 1,200 Climbing Toronto Center
03:39PM 42.6833 -81.0833 180° South 220 253 10,800 1,200 Climbing Toronto Center
03:40PM 42.6167 -81.1000 190° South 230 265 12,600 1,860 Climbing Toronto Center
03:41PM 42.5667 -81.1000 180° South 220 253 14,600 1,620 Climbing Toronto Center
03:42PM 42.5000 -81.1000 180° South 220 253 15,900 1,380 Climbing Toronto Center
03:43PM 42.4500 -81.1000 180° South 220 253 17,400 1,320 Climbing Toronto Center
03:44PM 42.3667 -81.1000 180° South 230 265 18,600 1,380 Climbing Toronto Center
03:45PM 42.3167 -81.1167 194° South 240 276 20,200 1,560 Climbing Toronto Center
03:45PM 42.2956 -81.1297 205° Southwest 238 274 21,000 1,620 Climbing Cleveland Center
03:47PM 42.2317 -81.1336 183° South 232 267 22,800 1,740 Climbing Cleveland Center
03:48PM 42.1689 -81.1358 182° South 226 260 24,600 1,740 Climbing Cleveland Center
03:49PM 42.0953 -81.1389 182° South 225 259 26,500 1,500 Climbing Cleveland Center
03:50PM 42.0319 -81.1417 182° South 225 259 27,800 1,200 Climbing Cleveland Center
03:51PM 41.9636 -81.1450 182° South 241 277 29,000 1,200 Climbing Cleveland Center
03:52PM 41.8961 -81.1475 182° South 241 277 30,300 1,200 Climbing Cleveland Center
03:53PM 41.8297 -81.1508 182° South 240 276 31,500 1,020 Climbing Cleveland Center
03:54PM 41.7631 -81.1536 182° South 239 275 32,500 720 Climbing Cleveland Center
03:55PM 41.6964 -81.1572 182° South 238 274 33,000 480 Climbing Cleveland Center
03:56PM 41.6244 -81.1600 182° South 251 289 33,600 480 Climbing Cleveland Center
03:57PM 41.5403 -81.1628 181° South 253 291 34,000 180 Climbing Cleveland Center
03:58PM 41.4642 -81.1711 185° South 265 305 34,000  Level Cleveland Center
03:59PM 41.3867 -81.1839 187° South 272 313 34,000  Level Cleveland Center
04:00PM 41.3050 -81.1958 186° South 285 328 34,000 60 Level Cleveland Center
04:01PM 41.2225 -81.2067 186° South 290 334 34,200 480 Climbing Cleveland Center
04:02PM 41.1431 -81.2183 186° South 286 329 35,000 720 Climbing Cleveland Center
04:03PM 41.0697 -81.2286 186° South 266 306 35,800 480 Climbing Cleveland Center
04:04PM 40.9978 -81.2389 186° South 257 296 36,000 60 Climbing Cleveland Center
04:05PM 40.9103 -81.2508 186° South 262 302 36,000  Level Cleveland Center
04:06PM 40.8314 -81.2631 187° South 280 322 36,000  Level Cleveland Center
04:07PM 40.7517 -81.2739 186° South 281 323 36,000  Level Cleveland Center
04:08PM 40.6711 -81.2861 187° South 286 329 36,000  Level Cleveland Center
04:09PM 40.5900 -81.2972 186° South 288 331 36,000  Level Cleveland Center
04:10PM 40.4994 -81.3086 185° South 291 335 36,000  Level Cleveland Center
04:11PM 40.4183 -81.3206 186° South 292 336 36,000  Level Cleveland Center
04:12PM 40.3381 -81.3331 187° South 292 336 36,000  Level Cleveland Center
04:13PM 40.2569 -81.3431 185° South 293 337 36,000  Level Cleveland Center
04:14PM 40.1747 -81.3544 186° South 293 337 36,000  Level Cleveland Center
04:16PM 40.0794 -81.3686 186° South 293 337 36,000  Level Cleveland Center
04:17PM 39.9983 -81.3794 186° South 293 337 36,000  Level Cleveland Center
04:18PM 39.9181 -81.3906 186° South 292 336 36,000  Level Cleveland Center
04:19PM 39.8447 -81.4011 186° South 292 336 36,000  Level Cleveland Center
04:20PM 39.7592 -81.4131 186° South 290 334 36,000  Level Cleveland Center
04:21PM 39.6803 -81.4236 186° South 288 331 36,000  Level Cleveland Center
04:22PM 39.5872 -81.4369 186° South 284 327 36,000  Level Cleveland Center
04:23PM 39.5144 -81.4478 187° South 284 327 36,000  Level Cleveland Center
04:24PM 39.4358 -81.4583 186° South 284 327 36,000  Level Cleveland Center
04:25PM 39.3578 -81.4683 186° South 284 327 36,000  Level Cleveland Center
04:26PM 39.2636 -81.4822 187° South 284 327 36,000  Level Cleveland Center
04:27PM 39.1842 -81.4922 186° South 285 328 36,000  Level Cleveland Center
04:28PM 39.1050 -81.5025 186° South 285 328 36,000  Level Cleveland Center
04:29PM 39.0247 -81.5139 186° South 286 329 36,000  Level Cleveland Center
04:30PM 38.9444 -81.5247 186° South 288 331 36,000  Level Cleveland Center
04:31PM 38.8642 -81.5358 186° South 288 331 36,000  Level Cleveland Center
04:33PM 38.7303 -81.5531 186° South 291 335 36,000  Level Indianapolis Center
04:34PM 38.6503 -81.5672 188° South 291 335 36,000  Level Indianapolis Center
04:35PM 38.5686 -81.5772 185° South 291 335 36,000  Level Indianapolis Center
04:36PM 38.4800 -81.5878 185° South 291 335 36,000  Level Indianapolis Center
04:37PM 38.3994 -81.5989 186° South 291 335 36,000  Level Indianapolis Center
04:38PM 38.3178 -81.6097 186° South 292 336 36,000  Level Indianapolis Center
04:39PM 38.2364 -81.6208 186° South 292 336 36,000  Level Indianapolis Center
04:40PM 38.1556 -81.6319 186° South 292 336 36,000  Level Indianapolis Center
04:41PM 38.0742 -81.6419 186° South 292 336 36,000  Level Indianapolis Center
04:42PM 37.9781 -81.6556 186° South 291 335 36,000  Level Indianapolis Center
04:43PM 37.8989 -81.6653 186° South 289 333 36,000  Level Indianapolis Center
04:44PM 37.8128 -81.6731 184° South 289 333 36,000  Level Indianapolis Center
04:45PM 37.6911 -81.6894 186° South 290 334 36,000  Level Atlanta Center
04:46PM 37.6122 -81.6997 186° South 290 334 36,000  Level Atlanta Center
04:47PM 37.5694 -81.6997 180° South 293 337 36,000  Level Indianapolis Center
04:48PM 37.4892 -81.7089 185° South 290 334 36,000  Level Indianapolis Center
04:49PM 37.3950 -81.7200 185° South 290 334 36,000  Level Indianapolis Center
04:50PM 37.3142 -81.7297 185° South 290 334 36,000  Level Indianapolis Center
04:51PM 37.2336 -81.7392 185° South 290 334 36,000  Level Indianapolis Center
04:52PM 37.1539 -81.7486 185° South 290 334 36,000  Level Indianapolis Center
04:53PM 37.0742 -81.7581 185° South 290 334 36,000  Level Indianapolis Center
04:54PM 36.9950 -81.7664 185° South 289 333 36,000  Level Indianapolis Center
04:55PM 36.9036 -81.7778 186° South 286 329 36,000  Level Indianapolis Center
04:56PM 36.8244 -81.7856 184° South 286 329 36,000  Level Indianapolis Center
04:57PM 36.7450 -81.7947 185° South 285 328 36,000  Level Indianapolis Center
04:58PM 36.6639 -81.8031 185° South 286 329 36,000  Level Indianapolis Center
04:59PM 36.5678 -81.8158 186° South 290 334 36,000  Level Atlanta Center
05:00PM 36.4972 -81.8231 185° South 290 334 36,000  Level Atlanta Center
05:01PM 36.4158 -81.8303 184° South 290 334 36,000  Level Atlanta Center
05:02PM 36.3328 -81.8403 186° South 295 339 36,000  Level Atlanta Center
05:03PM 36.2536 -81.8475 184° South 295 339 36,000  Level Atlanta Center
05:04PM 36.1725 -81.8603 187° South 289 333 36,000  Level Atlanta Center
05:05PM 36.0933 -81.8675 184° South 295 339 36,000  Level Atlanta Center
05:06PM 36.0119 -81.8747 184° South 290 334 36,000  Level Atlanta Center
05:07PM 35.9289 -81.8872 187° South 296 341 36,000  Level Atlanta Center
05:08PM 35.8436 -81.8972 185° South 296 341 36,000  Level Atlanta Center
05:09PM 35.7603 -81.9069 185° South 301 346 36,000  Level Atlanta Center
05:10PM 35.6728 -81.9169 185° South 307 353 36,000  Level Atlanta Center
05:11PM 35.5917 -81.9267 186° South 312 359 36,000  Level Atlanta Center
05:12PM 35.5061 -81.9339 184° South 312 359 36,000  Level Atlanta Center
05:13PM 35.4208 -81.9414 184° South 312 359 36,000  Level Atlanta Center
05:14PM 35.3333 -81.9536 187° South 312 359 36,000  Level Atlanta Center
05:15PM 35.2481 -81.9636 185° South 312 359 36,000  Level Atlanta Center
05:16PM 35.1625 -81.9733 185° South 312 359 36,000  Level Atlanta Center
05:17PM 35.0792 -81.9803 184° South 312 359 36,000  Level Atlanta Center
05:18PM 34.9917 -81.9903 185° South 312 359 36,000  Level Atlanta Center
05:19PM 34.8958 -81.9975 184° South 312 359 36,000  Level Atlanta Center
05:20PM 34.8106 -82.0072 185° South 312 359 36,000  Level Atlanta Center
05:21PM 34.7231 -82.0169 185° South 312 359 36,000  Level Atlanta Center
05:22PM 34.6375 -82.0242 184° South 312 359 36,000  Level Atlanta Center
05:23PM 34.5500 -82.0339 185° South 312 359 36,000  Level Atlanta Center
05:24PM 34.4647 -82.0433 185° South 312 359 36,000  Level Atlanta Center
05:25PM 34.3772 -82.0506 184° South 312 359 36,000  Level Atlanta Center
05:26PM 34.2897 -82.0600 185° South 312 359 36,000  Level Atlanta Center
05:27PM 34.2000 -82.0697 185° South 317 365 36,000  Level Atlanta Center
05:28PM 34.1147 -82.0792 185° South 317 365 36,000  Level Atlanta Center
05:29PM 34.0250 -82.0889 185° South 317 365 36,000  Level Atlanta Center
05:30PM 33.9375 -82.0983 185° South 317 365 36,000  Level Atlanta Center
05:31PM 33.8481 -82.1078 185° South 317 365 36,000  Level Atlanta Center
05:32PM 33.7603 -82.1147 184° South 317 365 36,000  Level Atlanta Center
05:33PM 33.6686 -82.1244 185° South 322 371 36,000  Level Atlanta Center
05:34PM 33.5792 -82.1364 186° South 328 377 36,000  Level Atlanta Center
05:35PM 33.4875 -82.1433 184° South 328 377 36,000  Level Atlanta Center
05:36PM 33.3958 -82.1528 185° South 328 377 36,000  Level Atlanta Center
05:37PM 33.3061 -82.1622 185° South 328 377 36,000  Level Atlanta Center
05:38PM 33.2144 -82.1717 185° South 328 377 36,000  Level Atlanta Center
05:39PM 33.1228 -82.1811 185° South 328 377 36,000  Level Atlanta Center
05:40PM 33.0289 -82.1931 186° South 334 384 36,000  Level Atlanta Center
05:41PM 32.9372 -82.2022 185° South 334 384 36,000  Level Atlanta Center
05:44PM 32.7514 -82.2208 185° South 338 389 36,000  Level Jacksonville Center
05:45PM 32.6594 -82.2289 184° South 338 389 36,000  Level Jacksonville Center
05:46PM 32.5656 -82.2394 185° South 344 396 36,000  Level Jacksonville Center
05:47PM 32.4697 -82.2500 185° South 349 402 36,000  Level Jacksonville Center
05:48PM 32.3675 -82.2606 185° South 338 389 36,000  Level Jacksonville Center
05:49PM 32.2736 -82.2708 185° South 338 389 36,000  Level Jacksonville Center
05:50PM 32.1881 -82.2789 185° South 344 396 36,000  Level Jacksonville Center
05:51PM 32.0836 -82.2894 185° South 350 403 36,000  Level Jacksonville Center
05:52PM 31.9878 -82.2972 184° South 345 397 36,000  Level Jacksonville Center
05:53PM 31.9064 -82.3078 186° South 345 397 36,000  Level Jacksonville Center
05:54PM 31.7997 -82.3156 184° South 350 403 36,000  Level Jacksonville Center
05:55PM 31.7081 -82.3261 186° South 342 394 36,000  Level Jacksonville Center
05:56PM 31.6225 -82.3314 183° South 342 394 36,000  Level Jacksonville Center
05:57PM 31.5347 -82.3417 186° South 336 387 36,000  Level Jacksonville Center
05:58PM 31.4389 -82.3519 185° South 336 387 36,000  Level Jacksonville Center
05:59PM 31.3386 -82.3647 186° South 331 381 36,000  Level Jacksonville Center
06:00PM 31.2447 -82.3750 185° South 331 381 36,000  Level Jacksonville Center
06:01PM 31.1528 -82.3828 184° South 331 381 36,000  Level Jacksonville Center
06:02PM 31.0631 -82.3906 184° South 331 381 36,000  Level Jacksonville Center
06:03PM 30.9714 -82.4008 185° South 331 381 36,000  Level Jacksonville Center
06:04PM 30.8817 -82.4108 185° South 331 381 36,000  Level Jacksonville Center
06:05PM 30.7875 -82.4186 184° South 331 381 36,000  Level Jacksonville Center
06:06PM 30.6936 -82.4142 178° South 331 381 36,000 -60 Level Jacksonville Center
06:07PM 30.5997 -82.4050 175° South 336 387 35,900 -360 Descending Jacksonville Center
06:08PM 30.5014 -82.4008 178° South 342 394 35,300 -600 Descending Jacksonville Center
06:09PM 30.4011 -82.3917 175° South 355 409 34,700 -1,020 Descending Jacksonville Center
06:10PM 30.3011 -82.3850 177° South 360 414 33,300 -1,440 Descending Jacksonville Center
06:11PM 30.1986 -82.3783 177° South 365 420 31,900 -1,440 Descending Jacksonville Center
06:12PM 30.0983 -82.3717 177° South 365 420 30,500 -1,380 Descending Jacksonville Center
06:13PM 30.0086 -82.3625 175° South 365 420 29,200 -1,380 Descending Jacksonville Center
06:14PM 29.9064 -82.3558 177° South 365 420 27,800 -1,740 Descending Jacksonville Center
06:15PM 29.8019 -82.3492 177° South 365 420 25,800 -8,400 Descending Jacksonville Center
06:16PM 29.6994 -82.3425 177° South 365 420 11,000 -1,860 Descending Jacksonville Center
06:17PM 29.6036 -82.3361 177° South 365 420 22,100 4,680 Climbing Jacksonville Center
06:18PM 29.5117 -82.3294 176° South 354 407 20,400 -1,680 Descending Jacksonville Center
06:19PM 29.4219 -82.3228 176° South 336 387 18,800 -1,320 Descending Jacksonville Center
06:20PM 29.3319 -82.3161 176° South 331 381 17,800 -1,140 Descending Jacksonville Center
06:21PM 29.2422 -82.3119 178° South 331 381 16,600 -1,200 Descending Jacksonville Center
06:22PM 29.1567 -82.3053 176° South 325 374 15,400 -1,200 Descending Jacksonville Center
06:23PM 29.0731 -82.2986 176° South 314 361 14,300 -1,200 Descending Jacksonville Center
06:24PM 28.9894 -82.2919 176° South 308 354 13,100 -1,260 Descending Jacksonville Center
06:25PM 28.8956 -82.2903 179° South 313 360 11,800 -780 Descending Jacksonville Center
06:26PM 28.7500 -82.2833 178° South 288 331 11,000 -360 Descending Tampa TRACON
06:27PM 28.6833 -82.2667 168° South 284 327 11,000 -60 Level Tampa TRACON
06:28PM 28.6000 -82.2833 190° South 278 320 10,900 -240 Descending Tampa TRACON
06:29PM 28.5667 -82.3667 246° West 269 310 10,500 -660 Descending Tampa TRACON
06:30PM 28.5333 -82.4500 246° West 281 323 9,600 -960 Descending Tampa TRACON
06:31PM 28.4833 -82.5167 230° Southwest 280 322 8,600 -1,020 Descending Tampa TRACON
06:32PM 28.4333 -82.5833 230° Southwest 281 323 7,600 -1,020 Descending Tampa TRACON
06:33PM 28.3833 -82.6333 221° Southwest 283 326 6,700 -1,020 Descending Tampa TRACON
06:34PM 28.3167 -82.7000 221° Southwest 280 322 5,600 -1,080 Descending Tampa TRACON
06:35PM 28.2667 -82.7500 221° Southwest 275 316 4,600 -840 Descending Tampa TRACON
06:36PM 28.1833 -82.7667 190° South 245 282 4,000 -480 Descending Tampa TRACON
06:37PM 28.1333 -82.7833 196° South 208 239 3,700 -480 Descending Tampa TRACON
06:38PM 28.0833 -82.7667 164° South 211 243 3,200 -540 Descending Tampa TRACON
06:39PM 28.0167 -82.7667 180° South 217 250 2,700 -360 Descending Tampa TRACON
06:40PM 27.9500 -82.7667 180° South 209 241 2,500 -300 Descending Tampa TRACON
06:41PM 27.9000 -82.7667 180° South 197 227 2,100 -540 Descending Tampa TRACON
06:42PM 27.8500 -82.7667 180° South 189 217 1,500 -360 Descending Tampa TRACON
06:43PM 27.8333 -82.7167 111° Southeast 144 166 1,400 -420 Descending Tampa TRACON
06:44PM 27.8667 -82.6833 41° Northeast 136 157 700 -720 Descending Tampa TRACON
06:46PM 27.9000 -82.6833 North  Level FlightAware Approximate